Aviation Digital Data Service (ADDS)

Output produced by METARs form (1330 UTC 15 November 2018)
found at http://www.aviationweather.gov/metar/data/
 
HRYR 151300Z 15006KT 9999 SCT025BKN100 24/18 Q1015 NOSIG
HRYR 151100Z 1512/1618 20008KT 9999 FEW023CB BKN025 
     TEMPO 1513/1517 10010G20KT -TSRA FEW022CB BKN023 FM 152100 34004KT SCT026
SCT100 
     BECMG 1603/1606 00000KT 8000 BKN025 FM 160800 16008KT 9999 -RA BKN023
BKN090 
     TEMPO 1614/1618 06010G20KT -TSRA FEW023CB BKN025